Araxa Airport


Codes: SBAX/AAX
Name: Araxa Airport
City: Araxa
Country: Brazil
Elevation: 3276 ft.
Wikipedia:

Photos at Araxa Airport


   Photos courtesy of SpottingLog. You can add your own sightings and photos by signing up for a free trial today.



No photos found.

Weather at Araxa Airport


Time (UTC)DescriptionTempratureWindCloud coverageVisibilityPressureHumidity
17-Jun-2024 06:00Clear Sky16°C2 mph, SE0%10000m1021hPa77%
17-Jun-2024 09:00Clear Sky14°C2 mph, SE1%10000m1020hPa78%
17-Jun-2024 12:00Clear Sky18°C4 mph, NE1%10000m1020hPa61%
17-Jun-2024 15:00Clear Sky25°C4 mph, N2%10000m1018hPa31%
17-Jun-2024 18:00Clear Sky26°C4 mph, NE3%10000m1015hPa25%
17-Jun-2024 21:00Clear Sky19°C4 mph, E5%10000m1015hPa41%
18-Jun-2024 00:00Clear Sky16°C4 mph, E2%10000m1018hPa51%
18-Jun-2024 03:00Clear Sky14°C4 mph, E0%10000m1018hPa62%
18-Jun-2024 06:00Clear Sky13°C2 mph, E2%10000m1017hPa66%
18-Jun-2024 09:00Clear Sky12°C4 mph, E1%10000m1019hPa67%
18-Jun-2024 12:00Clear Sky19°C7 mph, NE1%10000m1019hPa46%
18-Jun-2024 15:00Clear Sky26°C11 mph, N0%10000m1017hPa30%
18-Jun-2024 18:00Clear Sky27°C7 mph, N0%10000m1013hPa26%
18-Jun-2024 21:00Clear Sky19°C4 mph, NE0%10000m1015hPa44%
19-Jun-2024 00:00Clear Sky16°C2 mph, E0%10000m1017hPa52%
19-Jun-2024 03:00Clear Sky15°C2 mph, SE0%10000m1018hPa59%
19-Jun-2024 06:00Clear Sky14°C2 mph, SE0%10000m1018hPa66%
19-Jun-2024 09:00Clear Sky14°C2 mph, SE0%10000m1018hPa71%
19-Jun-2024 12:00Clear Sky21°C7 mph, E0%10000m1020hPa49%
19-Jun-2024 15:00Clear Sky27°C7 mph, NE0%10000m1018hPa29%
19-Jun-2024 18:00Clear Sky27°C7 mph, N0%10000m1014hPa26%
19-Jun-2024 21:00Clear Sky20°C0 mph, NW0%10000m1016hPa41%
20-Jun-2024 00:00Clear Sky17°C2 mph, SE0%10000m1018hPa49%
20-Jun-2024 03:00Clear Sky16°C4 mph, SE0%10000m1018hPa52%
20-Jun-2024 06:00Clear Sky15°C2 mph, SE0%10000m1017hPa57%
20-Jun-2024 09:00Clear Sky14°C2 mph, SE1%10000m1018hPa61%
20-Jun-2024 12:00Clear Sky22°C4 mph, E2%10000m1019hPa42%
20-Jun-2024 15:00Clear Sky27°C9 mph, NE0%10000m1018hPa33%
20-Jun-2024 18:00Clear Sky27°C4 mph, NE0%10000m1015hPa29%
20-Jun-2024 21:00Clear Sky21°C0 mph, SE4%10000m1016hPa43%
21-Jun-2024 00:00Few Clouds19°C4 mph, SE12%10000m1018hPa49%
21-Jun-2024 03:00Few Clouds17°C4 mph, SE14%10000m1018hPa57%
21-Jun-2024 06:00Clear Sky16°C4 mph, SE9%10000m1017hPa59%
21-Jun-2024 09:00Clear Sky15°C4 mph, SE0%10000m1018hPa62%
21-Jun-2024 12:00Few Clouds21°C9 mph, E21%10000m1019hPa48%
21-Jun-2024 15:00Broken Clouds27°C9 mph, NE60%10000m1016hPa35%
21-Jun-2024 18:00Broken Clouds28°C7 mph, NE65%10000m1013hPa29%
21-Jun-2024 21:00Overcast Clouds24°C7 mph, E100%10000m1015hPa40%
22-Jun-2024 00:00Overcast Clouds21°C4 mph, E100%10000m1017hPa46%
22-Jun-2024 03:00Overcast Clouds20°C2 mph, E85%10000m1017hPa48%